Agios Nikolas — SVAV5 — position and weather

sailwx.info

Track history (hours):
 
Tides and Currents Weather Stations Pressure Air Temp Water Temp Dewpoint Dewpoint Depression Visibility Wind Speed Wind Dir Waves Ship Positions

Agios Nikolas

Last reported at 2014-Oct-21 03:12 UTC. Time now 2014-Oct-22 06:24 UTC.
Position N 29°55' E 123°40'.

Length 225 m; draft 8.2 m.

Type: Cargo ship. MMSI: 240963000.

Date/timePositionNaut miles runAvg speedWind from/ knotsBaromVisibWave heightAir tempDewpointWater temp
2014-Oct-21 03:12N 29°55' E 123°40'1215.0
2014-Oct-21 02:26N 29°45' E 123°33'1515.0
2014-Oct-21 01:27N 29°34' E 123°23'1715.3
2014-Oct-21 00:22N 29°20' E 123°12'35514.3
2014-Oct-19 23:28N 24°33' E 119°18'6014.1
2014-Oct-19 19:14N 23°51' E 118°31'10813.4
2014-Oct-19 11:13N 22°48' E 116°55'913.7
2014-Oct-19 10:33N 22°45' E 116°46'4113.4
2014-Oct-19 07:29N 22°26' E 116°07'  
Track history (hours):
 
Tides and Currents Weather Stations Pressure Air Temp Water Temp Dewpoint Dewpoint Depression Visibility Wind Speed Wind Dir Waves Ship Positions

Agios Nikolas

Last reported at 2014-Oct-21 03:12 UTC. Time now 2014-Oct-22 06:24 UTC.
Position N 29°55' E 123°40'.

Length 225 m; draft 8.2 m.

Type: Cargo ship. MMSI: 240963000.

Date/timePositionNaut miles runAvg speedWind from/ knotsBaromVisibWave heightAir tempDewpointWater temp
2014-Oct-21 03:12N 29°55' E 123°40'1215.0
2014-Oct-21 02:26N 29°45' E 123°33'1515.0
2014-Oct-21 01:27N 29°34' E 123°23'1715.3
2014-Oct-21 00:22N 29°20' E 123°12'35514.3
2014-Oct-19 23:28N 24°33' E 119°18'6014.1
2014-Oct-19 19:14N 23°51' E 118°31'10813.4
2014-Oct-19 11:13N 22°48' E 116°55'913.7
2014-Oct-19 10:33N 22°45' E 116°46'4113.4
2014-Oct-19 07:29N 22°26' E 116°07'  

Dump ship's entire track history